Terminal Aerodrome Forecast
Issued by NWS Upton, NY

Home | Current Version | Previous Version | Text Only | Print | Product List | Glossary On
Versions: 1 2 3 4 5 6 7 8 9 10 11 12 13 14 15 16 17 18 19 20 21 22 23 24 25 26 27
454
FTUS41 KOKX 110240 AAA
TAFEWR
TAF AMD
KEWR 110240Z 1103/1206 26013KT P6SM FEW050 OVC090
     FM110700 29015G23KT P6SM BKN035
     FM111500 29021G31KT P6SM BKN050
     FM120200 30016G28KT P6SM FEW040=

USA.gov is the U.S. government's official web portal to all federal, state and local government web resources and services.